createdAt,value
2019-04-01T00:05:02.924Z,101180.62
2019-04-01T00:10:06.581Z,101187.34
2019-04-01T00:15:10.242Z,101186.91
2019-04-01T00:20:13.778Z,101195.02
2019-04-01T00:25:17.383Z,101195.38
2019-04-01T00:30:20.998Z,101186.33
2019-04-01T00:35:24.617Z,101194.77
2019-04-01T00:40:28.236Z,101202.28
2019-04-01T00:45:33.495Z,101196.16
2019-04-01T00:50:37.323Z,101199.81
2019-04-01T00:55:40.945Z,101204.75
2019-04-01T01:00:44.559Z,101209.64
2019-04-01T01:05:48.183Z,101210.52
2019-04-01T01:10:51.798Z,101211.88
2019-04-01T01:15:55.421Z,101220.69
2019-04-01T01:20:59.120Z,101216.41
2019-04-01T01:26:02.758Z,101220.28
2019-04-01T01:31:06.378Z,101222.72
2019-04-01T01:36:10.007Z,101221.71
2019-04-01T01:41:13.626Z,101222.90
2019-04-01T01:46:17.241Z,101226.66
2019-04-01T01:51:20.866Z,101235.95
2019-04-01T01:56:24.474Z,101229.09
2019-04-01T02:01:28.103Z,101236.06
2019-04-01T02:06:31.623Z,101246.53
2019-04-01T02:11:35.162Z,101244.27
2019-04-01T02:16:38.748Z,101247.98
2019-04-01T02:21:42.366Z,101256.55
2019-04-01T02:26:45.989Z,101258.90
2019-04-01T02:31:49.605Z,101259.34
2019-04-01T02:36:53.142Z,101263.77
2019-04-01T02:41:56.679Z,101263.34
2019-04-01T02:47:00.277Z,101258.88
2019-04-01T02:52:04.806Z,101268.66
2019-04-01T02:57:08.425Z,101269.97
2019-04-01T03:02:12.039Z,101268.14
2019-04-01T03:07:15.597Z,101271.66
2019-04-01T03:12:19.180Z,101272.99
2019-04-01T03:17:22.800Z,101281.06
2019-04-01T03:22:26.361Z,101279.88
2019-04-01T03:27:29.954Z,101286.99
2019-04-01T03:32:33.590Z,101292.99
2019-04-01T03:37:37.166Z,101293.21
2019-04-01T03:42:40.686Z,101294.71
2019-04-01T03:47:44.224Z,101296.66
2019-04-01T03:52:48.146Z,101299.55
2019-04-01T03:57:51.763Z,101298.59
2019-04-01T04:02:55.305Z,101301.06
2019-04-01T04:07:58.872Z,101295.65
2019-04-01T04:13:02.395Z,101291.49
2019-04-01T04:18:05.996Z,101299.44
2019-04-01T04:23:09.581Z,101298.11
2019-04-01T04:28:13.107Z,101303.99
2019-04-01T04:33:16.697Z,101298.33
2019-04-01T04:38:20.244Z,101309.18
2019-04-01T04:43:23.825Z,101307.80
2019-04-01T04:48:27.362Z,101310.79
2019-04-01T04:53:30.964Z,101314.02
2019-04-01T04:58:34.560Z,101319.95
2019-04-01T05:03:38.088Z,101318.83
2019-04-01T05:08:41.646Z,101323.94
2019-04-01T05:13:45.233Z,101331.20
2019-04-01T05:18:48.760Z,101339.05
2019-04-01T05:23:52.333Z,101332.10
2019-04-01T05:28:55.875Z,101338.33
2019-04-01T05:33:59.420Z,101344.03
2019-04-01T05:39:02.998Z,101343.05
2019-04-01T05:44:06.556Z,101348.87
2019-04-01T05:49:10.155Z,101345.84
2019-04-01T05:54:13.716Z,101347.17
2019-04-01T05:59:17.284Z,101357.38
2019-04-01T06:04:20.872Z,101352.05
2019-04-01T06:09:24.424Z,101359.63
2019-04-01T06:14:27.974Z,101359.59
2019-04-01T06:19:31.507Z,101364.48
2019-04-01T06:24:35.048Z,101368.91
2019-04-01T06:29:38.683Z,101368.91
2019-04-01T06:34:52.808Z,101375.13
2019-04-01T06:39:47.547Z,101372.03
2019-04-01T06:44:51.092Z,101381.79
2019-04-01T06:49:54.669Z,101383.14
2019-04-01T06:54:58.201Z,101387.14
2019-04-01T07:00:01.743Z,101393.78
2019-04-01T07:05:06.185Z,101391.55
2019-04-01T07:10:09.743Z,101390.17
2019-04-01T07:15:13.284Z,101400.40
2019-04-01T07:20:16.857Z,101397.73
2019-04-01T07:25:20.421Z,101394.14
2019-04-01T07:30:23.954Z,101399.89
2019-04-01T07:35:27.556Z,101406.54
2019-04-01T07:40:31.194Z,101413.22
2019-04-01T07:45:34.934Z,101409.67
2019-04-01T07:50:38.492Z,101413.63
2019-04-01T07:55:42.016Z,101413.17
2019-04-01T08:00:45.569Z,101417.59
2019-04-01T08:05:49.118Z,101413.60
2019-04-01T08:10:52.654Z,101416.70
2019-04-01T08:15:56.174Z,101413.62
2019-04-01T08:20:59.767Z,101420.30
2019-04-01T08:26:03.327Z,101418.08
2019-04-01T08:31:07.863Z,101416.75
2019-04-01T08:36:11.450Z,101423.42
2019-04-01T08:41:14.967Z,101418.12
2019-04-01T08:46:18.530Z,101422.12
2019-04-01T08:51:22.129Z,101418.58
2019-04-01T08:56:25.645Z,101409.67
2019-04-01T09:01:35.458Z,101412.33
2019-04-01T09:06:34.868Z,101409.67
2019-04-01T09:11:38.838Z,101403.46
2019-04-01T09:16:42.546Z,101407.00
2019-04-01T09:21:46.105Z,101404.80
2019-04-01T09:26:49.675Z,101407.03
2019-04-01T09:31:53.244Z,101396.86
2019-04-01T09:36:56.797Z,101389.30
2019-04-01T09:42:00.341Z,101391.08
2019-04-01T09:47:04.952Z,101386.20
2019-04-01T09:52:08.513Z,101396.44
2019-04-01T09:57:17.866Z,101381.78
2019-04-01T10:02:31.075Z,101383.57
2019-04-01T10:07:29.159Z,101381.80
2019-04-01T10:12:32.779Z,101379.59
2019-04-01T10:17:36.315Z,101382.27
2019-04-01T10:22:39.878Z,101375.13
2019-04-01T10:27:43.599Z,101372.90
2019-04-01T10:32:47.125Z,101360.92
2019-04-01T10:37:50.709Z,101360.94
2019-04-01T10:42:54.255Z,101364.48
2019-04-01T10:47:57.986Z,101339.63
2019-04-01T10:53:01.678Z,101343.17
2019-04-01T10:58:05.327Z,101346.70
2019-04-01T11:03:08.963Z,101351.58
2019-04-01T12:32:12.307Z,101270.41
2019-04-01T12:37:15.905Z,101265.51
2019-04-01T12:42:19.749Z,101254.45
2019-04-01T12:47:23.789Z,101264.22
2019-04-01T12:52:27.336Z,101255.45
2019-04-01T12:57:30.900Z,101252.73
2019-04-01T13:02:34.555Z,101237.63
2019-04-01T13:07:38.092Z,101225.33
2019-04-01T13:12:41.717Z,101226.59
2019-04-01T13:17:45.597Z,101211.11
2019-04-01T13:22:50.340Z,101210.72
2019-04-01T13:27:53.920Z,101213.05
2019-04-01T13:32:57.505Z,101201.66
2019-04-01T13:38:01.107Z,101201.18
2019-04-01T13:43:04.904Z,101196.30
2019-04-01T13:48:08.534Z,101160.33
2019-04-01T13:53:12.088Z,101171.69
2019-04-01T13:58:17.572Z,101181.05
2019-04-01T14:03:21.045Z,101180.21
2019-04-01T14:08:24.588Z,101162.87
2019-04-01T14:13:28.194Z,101162.50
2019-04-01T14:18:32.008Z,101158.52
2019-04-01T14:23:35.602Z,101150.98
2019-04-01T14:28:39.230Z,101136.83
2019-04-01T14:33:43.317Z,101127.98
2019-04-01T14:38:46.982Z,101133.33
2019-04-01T14:43:50.611Z,101116.92
2019-04-01T14:48:54.378Z,101110.73
2019-04-01T14:54:02.469Z,101110.77
2019-04-01T14:59:06.171Z,101103.23
2019-04-01T15:04:09.907Z,101104.60
2019-04-01T15:09:13.551Z,101091.30
2019-04-01T15:14:17.145Z,101087.77
2019-04-01T15:19:20.756Z,101081.14
2019-04-01T15:24:24.309Z,101039.91
2019-04-01T15:29:29.177Z,101079.80
2019-04-01T15:34:32.840Z,101068.27
2019-04-01T15:39:36.406Z,101062.50
2019-04-01T15:44:40.001Z,101066.49
2019-04-01T15:49:43.633Z,101066.51
2019-04-01T15:54:47.205Z,101056.28
2019-04-01T15:59:50.830Z,101052.61
2019-04-01T16:04:54.452Z,101057.27
2019-04-01T16:09:58.164Z,101061.31
2019-04-01T16:15:01.786Z,101055.83
2019-04-01T16:20:06.735Z,101051.45
2019-04-01T16:25:10.360Z,101059.66
2019-04-01T16:30:14.179Z,101050.79
2019-04-01T16:35:17.846Z,101043.33
2019-04-01T16:40:21.621Z,101040.41
2019-04-01T16:45:25.352Z,101043.14
2019-04-01T16:50:29.089Z,101048.17
2019-04-01T16:55:32.672Z,101042.52
2019-04-01T17:00:36.240Z,101038.56
2019-04-01T17:05:39.844Z,101047.02
2019-04-01T17:10:43.412Z,101047.48
2019-04-01T17:15:47.059Z,101048.80
2019-04-01T17:20:50.709Z,101055.88
2019-04-01T17:25:54.860Z,101056.70
2019-04-01T17:30:58.640Z,101055.34
2019-04-01T17:36:02.259Z,101060.20
2019-04-01T17:41:05.943Z,101062.41
2019-04-01T17:46:09.597Z,101070.34
2019-04-01T17:51:13.226Z,101066.83
2019-04-01T17:56:17.933Z,101076.26
2019-04-01T18:01:21.786Z,101074.80
2019-04-01T18:06:25.643Z,101066.98
2019-04-01T18:11:29.232Z,101076.07
2019-04-01T18:16:33.688Z,101078.30
2019-04-01T18:21:38.288Z,101077.95
2019-04-01T18:26:42.789Z,101086.16
2019-04-01T18:31:46.475Z,101084.90
2019-04-01T18:36:52.056Z,101083.29
2019-04-01T18:41:55.393Z,101082.45
2019-04-01T18:46:59.000Z,101087.45
2019-04-01T18:52:02.552Z,101085.28
2019-04-01T18:57:06.124Z,101091.95
2019-04-01T19:02:09.725Z,101094.42
2019-04-01T19:07:13.355Z,101091.73
2019-04-01T19:12:17.037Z,101095.66
2019-04-01T19:17:20.686Z,101096.02
2019-04-01T19:22:24.309Z,101087.54
2019-04-01T19:27:27.930Z,101087.94
2019-04-01T19:32:32.061Z,101079.45
2019-04-01T19:37:35.695Z,101075.39
2019-04-01T19:42:39.874Z,101083.34
2019-04-01T19:47:43.630Z,101084.23
2019-04-01T19:52:47.252Z,101077.06
2019-04-01T19:57:50.874Z,101074.56
2019-04-01T20:02:55.333Z,101072.98
2019-04-01T20:07:59.864Z,101073.73
2019-04-01T20:13:03.476Z,101083.89
2019-04-01T20:18:07.970Z,101078.79
2019-04-01T20:23:11.940Z,101082.28
2019-04-01T20:28:15.493Z,101085.68
2019-04-01T20:33:20.645Z,101087.39
2019-04-01T20:38:24.740Z,101087.47
2019-04-01T20:43:28.353Z,101082.32
2019-04-01T20:48:33.084Z,101077.66
2019-04-01T20:53:36.921Z,101074.63
2019-04-01T20:58:41.251Z,101075.70
2019-04-01T21:03:45.704Z,101074.91
2019-04-01T21:08:49.329Z,101065.90
2019-04-01T21:13:52.875Z,101066.25
2019-04-01T21:18:56.455Z,101063.42
2019-04-01T21:24:00.078Z,101058.88
2019-04-01T21:29:03.702Z,101056.55
2019-04-01T21:34:07.856Z,101049.36
2019-04-01T21:39:11.544Z,101057.27
2019-04-01T21:44:15.168Z,101049.63
2019-04-01T21:49:18.791Z,101046.85
2019-04-01T21:54:22.609Z,101045.91
2019-04-01T21:59:26.227Z,101041.44
2019-04-01T22:04:29.851Z,101040.06
2019-04-01T22:09:34.458Z,101025.85
2019-04-01T22:14:38.012Z,101020.94
2019-04-01T22:19:41.627Z,101023.48
2019-04-01T22:24:45.249Z,101019.00
2019-04-01T22:29:49.323Z,101011.06
2019-04-01T22:34:52.894Z,101015.65
2019-04-01T22:39:56.871Z,101004.69
2019-04-01T22:45:00.485Z,101008.03
2019-04-01T22:50:06.292Z,100988.83
2019-04-01T22:55:09.944Z,100980.13
2019-04-01T23:00:13.697Z,100990.66
2019-04-01T23:05:17.383Z,100987.11
2019-04-01T23:10:20.999Z,100985.83
2019-04-01T23:15:24.624Z,100989.59
2019-04-01T23:20:28.234Z,100982.23
2019-04-01T23:25:31.858Z,100979.25
2019-04-01T23:30:35.407Z,100982.09
2019-04-01T23:35:39.102Z,100972.36
2019-04-01T23:40:42.723Z,100961.36
2019-04-01T23:45:46.338Z,100956.02
2019-04-01T23:50:49.956Z,100952.98
2019-04-01T23:55:53.580Z,100946.03
